sensor_id;sensor_type;location;lat;lon;timestamp;pressure;altitude;pressure_sealevel;temperature;humidity
5053;BME280;2545;50.892;5.740;2023-01-06T00:01:07;56372.91;;;-142.21;100.00
5053;BME280;2545;50.892;5.740;2023-01-06T00:03:33;56370.94;;;-142.21;100.00
5053;BME280;2545;50.892;5.740;2023-01-06T00:06:00;56341.53;;;-142.21;100.00
5053;BME280;2545;50.892;5.740;2023-01-06T00:08:26;56333.69;;;-142.21;100.00
5053;BME280;2545;50.892;5.740;2023-01-06T00:10:51;56363.09;;;-142.21;100.00
5053;BME280;2545;50.892;5.740;2023-01-06T00:13:17;56394.47;;;-142.21;100.00
5053;BME280;2545;50.892;5.740;2023-01-06T00:15:42;56386.63;;;-142.21;100.00
5053;BME280;2545;50.892;5.740;2023-01-06T00:18:07;56374.84;;;-142.21;100.00
5053;BME280;2545;50.892;5.740;2023-01-06T00:20:33;56386.63;;;-142.21;100.00
5053;BME280;2545;50.892;5.740;2023-01-06T00:22:58;56365.06;;;-142.21;100.00
5053;BME280;2545;50.892;5.740;2023-01-06T00:25:24;56355.25;;;-142.21;100.00
5053;BME280;2545;50.892;5.740;2023-01-06T00:27:49;56388.59;;;-142.21;100.00
5053;BME280;2545;50.892;5.740;2023-01-06T00:30:14;56337.59;;;-142.21;100.00
5053;BME280;2545;50.892;5.740;2023-01-06T00:32:40;56363.09;;;-142.21;100.00
5053;BME280;2545;50.892;5.740;2023-01-06T00:35:05;56388.59;;;-142.21;100.00
5053;BME280;2545;50.892;5.740;2023-01-06T00:37:31;56331.72;;;-142.21;100.00
5053;BME280;2545;50.892;5.740;2023-01-06T00:39:56;56386.63;;;-142.21;100.00
5053;BME280;2545;50.892;5.740;2023-01-06T00:42:21;56374.84;;;-142.21;100.00
5053;BME280;2545;50.892;5.740;2023-01-06T00:44:50;56388.59;;;-142.21;100.00
5053;BME280;2545;50.892;5.740;2023-01-06T00:47:15;56380.75;;;-142.21;100.00
5053;BME280;2545;50.892;5.740;2023-01-06T00:49:41;56363.09;;;-142.21;100.00
5053;BME280;2545;50.892;5.740;2023-01-06T00:52:06;56384.66;;;-142.21;100.00
5053;BME280;2545;50.892;5.740;2023-01-06T00:54:31;56331.72;;;-142.21;100.00
5053;BME280;2545;50.892;5.740;2023-01-06T00:56:57;56386.63;;;-142.21;100.00
5053;BME280;2545;50.892;5.740;2023-01-06T00:59:24;56361.13;;;-142.21;100.00
5053;BME280;2545;50.892;5.740;2023-01-06T01:01:53;56398.38;;;-142.21;100.00
5053;BME280;2545;50.892;5.740;2023-01-06T01:04:19;56349.38;;;-142.21;100.00
5053;BME280;2545;50.892;5.740;2023-01-06T01:06:45;56380.75;;;-142.21;100.00
5053;BME280;2545;50.892;5.740;2023-01-06T01:09:14;56382.69;;;-142.21;100.00
5053;BME280;2545;50.892;5.740;2023-01-06T01:11:39;56367.00;;;-142.21;100.00
5053;BME280;2545;50.892;5.740;2023-01-06T01:14:23;56351.31;;;-142.21;100.00
5053;BME280;2545;50.892;5.740;2023-01-06T01:16:48;56367.00;;;-142.21;99.59
5053;BME280;2545;50.892;5.740;2023-01-06T01:19:15;56390.53;;;-142.21;99.81
5053;BME280;2545;50.892;5.740;2023-01-06T01:21:40;56357.22;;;-142.21;95.89
5053;BME280;2545;50.892;5.740;2023-01-06T01:24:06;56374.84;;;-142.21;92.41
5053;BME280;2545;50.892;5.740;2023-01-06T01:26:31;56390.53;;;-142.21;90.15
5053;BME280;2545;50.892;5.740;2023-01-06T01:28:56;56359.16;;;-142.21;87.04
5053;BME280;2545;50.892;5.740;2023-01-06T01:31:22;56370.94;;;-142.21;87.21
5053;BME280;2545;50.892;5.740;2023-01-06T01:33:47;56378.78;;;-142.21;86.45
5053;BME280;2545;50.892;5.740;2023-01-06T01:36:15;56357.22;;;-142.21;86.61
5053;BME280;2545;50.892;5.740;2023-01-06T01:38:41;56329.75;;;-142.21;84.69
5053;BME280;2545;50.892;5.740;2023-01-06T01:41:10;56382.69;;;-142.21;85.33
5053;BME280;2545;50.892;5.740;2023-01-06T01:46:20;56372.91;;;-142.21;87.43
5053;BME280;2545;50.892;5.740;2023-01-06T01:48:47;56368.97;;;-142.21;89.26
5053;BME280;2545;50.892;5.740;2023-01-06T01:51:15;56384.66;;;-142.21;89.18
5053;BME280;2545;50.892;5.740;2023-01-06T01:53:46;56398.38;;;-142.21;91.21
5053;BME280;2545;50.892;5.740;2023-01-06T01:56:15;56357.22;;;-142.21;91.36
5053;BME280;2545;50.892;5.740;2023-01-06T01:58:47;56400.34;;;-142.21;94.52
5053;BME280;2545;50.892;5.740;2023-01-06T02:01:12;56394.47;;;-142.21;96.02
5053;BME280;2545;50.892;5.740;2023-01-06T02:03:40;56370.94;;;-142.21;96.38
5053;BME280;2545;50.892;5.740;2023-01-06T02:06:16;56376.81;;;-142.21;97.55
5053;BME280;2545;50.892;5.740;2023-01-06T02:08:50;56363.09;;;-142.21;98.41
5053;BME280;2545;50.892;5.740;2023-01-06T02:11:19;56418.00;;;-142.21;99.92
5053;BME280;2545;50.892;5.740;2023-01-06T02:13:44;56368.97;;;-142.21;100.00
5053;BME280;2545;50.892;5.740;2023-01-06T02:16:37;56365.06;;;-142.21;100.00
5053;BME280;2545;50.892;5.740;2023-01-06T02:22:26;56376.81;;;-142.21;98.45
5053;BME280;2545;50.892;5.740;2023-01-06T02:32:44;56374.84;;;-142.21;97.04
5053;BME280;2545;50.892;5.740;2023-01-06T02:38:03;56370.94;;;-142.21;98.46
5053;BME280;2545;50.892;5.740;2023-01-06T02:48:55;56345.44;;;-142.21;98.36
5053;BME280;2545;50.892;5.740;2023-01-06T02:51:30;56347.41;;;-142.21;99.50
5053;BME280;2545;50.892;5.740;2023-01-06T02:54:10;56386.63;;;-142.21;98.38
5053;BME280;2545;50.892;5.740;2023-01-06T02:56:48;56376.81;;;-142.21;98.31
5053;BME280;2545;50.892;5.740;2023-01-06T02:59:32;56372.91;;;-142.21;97.83
5053;BME280;2545;50.892;5.740;2023-01-06T03:01:59;56361.13;;;-142.21;97.11
5053;BME280;2545;50.892;5.740;2023-01-06T03:04:29;56386.63;;;-142.21;96.62
5053;BME280;2545;50.892;5.740;2023-01-06T03:06:57;56390.53;;;-142.21;96.46
5053;BME280;2545;50.892;5.740;2023-01-06T03:09:30;56386.63;;;-142.21;95.76
5053;BME280;2545;50.892;5.740;2023-01-06T03:11:59;56361.13;;;-142.21;95.19
5053;BME280;2545;50.892;5.740;2023-01-06T03:14:27;56372.91;;;-142.21;92.43
5053;BME280;2545;50.892;5.740;2023-01-06T03:16:56;56370.94;;;-142.21;92.99
5053;BME280;2545;50.892;5.740;2023-01-06T03:19:22;56331.72;;;-142.21;92.07
5053;BME280;2545;50.892;5.740;2023-01-06T03:21:49;56357.22;;;-142.21;92.13
5053;BME280;2545;50.892;5.740;2023-01-06T03:24:15;56363.09;;;-142.21;91.58
5053;BME280;2545;50.892;5.740;2023-01-06T03:26:42;56347.41;;;-142.21;91.59
5053;BME280;2545;50.892;5.740;2023-01-06T03:29:11;56396.44;;;-142.21;92.18
5053;BME280;2545;50.892;5.740;2023-01-06T03:37:13;56382.69;;;-142.21;92.71
5053;BME280;2545;50.892;5.740;2023-01-06T03:40:25;56368.97;;;-142.21;92.56
5053;BME280;2545;50.892;5.740;2023-01-06T03:56:52;56357.22;;;-142.21;94.04
5053;BME280;2545;50.892;5.740;2023-01-06T03:59:21;56367.00;;;-142.21;94.34
5053;BME280;2545;50.892;5.740;2023-01-06T04:01:49;56404.28;;;-142.21;94.42
5053;BME280;2545;50.892;5.740;2023-01-06T04:04:18;56382.69;;;-142.21;96.26
5053;BME280;2545;50.892;5.740;2023-01-06T04:06:44;56384.66;;;-142.21;97.26
5053;BME280;2545;50.892;5.740;2023-01-06T04:09:09;56384.66;;;-142.21;97.31
5053;BME280;2545;50.892;5.740;2023-01-06T04:11:34;56398.38;;;-142.21;96.99
5053;BME280;2545;50.892;5.740;2023-01-06T04:14:18;56386.63;;;-142.21;96.30
5053;BME280;2545;50.892;5.740;2023-01-06T04:16:44;56386.63;;;-142.21;97.55
5053;BME280;2545;50.892;5.740;2023-01-06T04:19:09;56314.06;;;-142.21;96.89
5053;BME280;2545;50.892;5.740;2023-01-06T04:21:34;56382.69;;;-142.21;96.11
5053;BME280;2545;50.892;5.740;2023-01-06T04:24:00;56337.59;;;-142.21;94.76
5053;BME280;2545;50.892;5.740;2023-01-06T04:26:25;56390.53;;;-142.21;94.60
5053;BME280;2545;50.892;5.740;2023-01-06T04:28:50;56394.47;;;-142.21;95.14
5053;BME280;2545;50.892;5.740;2023-01-06T04:31:16;56384.66;;;-142.21;96.47
5053;BME280;2545;50.892;5.740;2023-01-06T04:33:41;56372.91;;;-142.21;95.47
5053;BME280;2545;50.892;5.740;2023-01-06T04:36:07;56374.84;;;-142.21;96.53
5053;BME280;2545;50.892;5.740;2023-01-06T04:38:35;56365.06;;;-142.21;96.86
5053;BME280;2545;50.892;5.740;2023-01-06T04:41:00;56386.63;;;-142.21;96.82
5053;BME280;2545;50.892;5.740;2023-01-06T04:43:26;56380.75;;;-142.21;96.78
5053;BME280;2545;50.892;5.740;2023-01-06T04:45:51;56406.22;;;-142.21;97.00
5053;BME280;2545;50.892;5.740;2023-01-06T04:48:16;56372.91;;;-142.21;96.60
5053;BME280;2545;50.892;5.740;2023-01-06T04:50:42;56367.00;;;-142.21;98.19
5053;BME280;2545;50.892;5.740;2023-01-06T04:53:09;56329.75;;;-142.21;98.80
5053;BME280;2545;50.892;5.740;2023-01-06T04:55:39;56370.94;;;-142.21;97.63
5053;BME280;2545;50.892;5.740;2023-01-06T04:58:05;56353.28;;;-142.21;98.07
5053;BME280;2545;50.892;5.740;2023-01-06T05:00:30;56365.06;;;-142.21;97.39
5053;BME280;2545;50.892;5.740;2023-01-06T05:02:55;56361.13;;;-142.21;97.98
5053;BME280;2545;50.892;5.740;2023-01-06T05:05:21;56374.84;;;-142.21;97.77
5053;BME280;2545;50.892;5.740;2023-01-06T05:07:46;56359.16;;;-142.21;96.88
5053;BME280;2545;50.892;5.740;2023-01-06T05:10:11;56382.69;;;-142.21;97.20
5053;BME280;2545;50.892;5.740;2023-01-06T05:12:37;56418.00;;;-142.21;97.28
5053;BME280;2545;50.892;5.740;2023-01-06T05:15:03;56351.31;;;-142.21;96.34
5053;BME280;2545;50.892;5.740;2023-01-06T05:17:29;56349.38;;;-142.21;95.45
5053;BME280;2545;50.892;5.740;2023-01-06T05:19:54;56386.63;;;-142.21;95.27
5053;BME280;2545;50.892;5.740;2023-01-06T05:22:19;56388.59;;;-142.21;95.25
5053;BME280;2545;50.892;5.740;2023-01-06T05:24:45;56367.00;;;-142.21;94.64
5053;BME280;2545;50.892;5.740;2023-01-06T05:27:10;56404.28;;;-142.21;94.49
5053;BME280;2545;50.892;5.740;2023-01-06T05:29:36;56359.16;;;-142.21;92.91
5053;BME280;2545;50.892;5.740;2023-01-06T05:32:02;56404.28;;;-142.21;93.82
5053;BME280;2545;50.892;5.740;2023-01-06T05:34:27;56392.50;;;-142.21;92.68
5053;BME280;2545;50.892;5.740;2023-01-06T05:36:53;56349.38;;;-142.21;92.99
5053;BME280;2545;50.892;5.740;2023-01-06T05:39:18;56380.75;;;-142.21;92.44
5053;BME280;2545;50.892;5.740;2023-01-06T05:41:44;56370.94;;;-142.21;92.47
5053;BME280;2545;50.892;5.740;2023-01-06T05:44:09;56365.06;;;-142.21;93.08
5053;BME280;2545;50.892;5.740;2023-01-06T05:46:34;56363.09;;;-142.21;93.96
5053;BME280;2545;50.892;5.740;2023-01-06T05:49:00;56359.16;;;-142.21;94.04
5053;BME280;2545;50.892;5.740;2023-01-06T05:51:26;56370.94;;;-142.21;94.42
5053;BME280;2545;50.892;5.740;2023-01-06T05:53:51;56357.22;;;-142.21;95.24
5053;BME280;2545;50.892;5.740;2023-01-06T05:56:18;56349.38;;;-142.21;95.35
5053;BME280;2545;50.892;5.740;2023-01-06T05:58:46;56365.06;;;-142.21;95.95
5053;BME280;2545;50.892;5.740;2023-01-06T06:01:28;56349.38;;;-142.21;95.31
5053;BME280;2545;50.892;5.740;2023-01-06T06:03:54;56343.47;;;-142.21;95.57
5053;BME280;2545;50.892;5.740;2023-01-06T06:06:21;56372.91;;;-142.21;95.68
5053;BME280;2545;50.892;5.740;2023-01-06T06:08:47;56386.63;;;-142.21;96.47
5053;BME280;2545;50.892;5.740;2023-01-06T06:11:14;56398.38;;;-142.21;96.95
5053;BME280;2545;50.892;5.740;2023-01-06T06:13:51;56363.09;;;-142.21;96.80
5053;BME280;2545;50.892;5.740;2023-01-06T06:16:18;56396.44;;;-142.21;97.57
5053;BME280;2545;50.892;5.740;2023-01-06T06:18:51;56382.69;;;-142.21;97.58
5053;BME280;2545;50.892;5.740;2023-01-06T06:21:19;56408.19;;;-142.21;96.88
5053;BME280;2545;50.892;5.740;2023-01-06T06:23:45;56370.94;;;-142.21;95.74
5053;BME280;2545;50.892;5.740;2023-01-06T06:26:10;56414.06;;;-142.21;94.61
5053;BME280;2545;50.892;5.740;2023-01-06T06:28:37;56361.13;;;-142.21;94.18
5053;BME280;2545;50.892;5.740;2023-01-06T06:31:09;56376.81;;;-142.21;94.74
5053;BME280;2545;50.892;5.740;2023-01-06T06:33:35;56333.69;;;-142.21;94.85
5053;BME280;2545;50.892;5.740;2023-01-06T06:36:01;56398.38;;;-142.21;94.62
5053;BME280;2545;50.892;5.740;2023-01-06T06:38:27;56380.75;;;-142.21;95.51
5053;BME280;2545;50.892;5.740;2023-01-06T06:40:52;56355.25;;;-142.21;94.87
5053;BME280;2545;50.892;5.740;2023-01-06T06:43:18;56325.84;;;-142.21;94.83
5053;BME280;2545;50.892;5.740;2023-01-06T06:45:44;56363.09;;;-142.21;95.24
5053;BME280;2545;50.892;5.740;2023-01-06T06:48:09;56349.38;;;-142.21;95.26
5053;BME280;2545;50.892;5.740;2023-01-06T06:50:34;56372.91;;;-142.21;95.09
5053;BME280;2545;50.892;5.740;2023-01-06T06:53:00;56384.66;;;-142.21;95.97
5053;BME280;2545;50.892;5.740;2023-01-06T06:55:25;56357.22;;;-142.21;96.43
5053;BME280;2545;50.892;5.740;2023-01-06T06:57:50;56392.50;;;-142.21;96.86
5053;BME280;2545;50.892;5.740;2023-01-06T07:00:16;56367.00;;;-142.21;97.13
5053;BME280;2545;50.892;5.740;2023-01-06T07:02:41;56412.13;;;-142.21;97.45
5053;BME280;2545;50.892;5.740;2023-01-06T07:05:08;56367.00;;;-142.21;97.27
5053;BME280;2545;50.892;5.740;2023-01-06T07:07:33;56376.81;;;-142.21;97.31
5053;BME280;2545;50.892;5.740;2023-01-06T07:09:58;56382.69;;;-142.21;97.99
5053;BME280;2545;50.892;5.740;2023-01-06T07:12:23;56390.53;;;-142.21;97.29
5053;BME280;2545;50.892;5.740;2023-01-06T07:14:49;56421.91;;;-142.21;98.34
5053;BME280;2545;50.892;5.740;2023-01-06T07:17:14;56335.63;;;-142.21;98.00
5053;BME280;2545;50.892;5.740;2023-01-06T07:19:39;56390.53;;;-142.21;97.94
5053;BME280;2545;50.892;5.740;2023-01-06T07:22:04;56421.91;;;-142.21;97.59
5053;BME280;2545;50.892;5.740;2023-01-06T07:24:30;56412.13;;;-142.21;97.64
5053;BME280;2545;50.892;5.740;2023-01-06T07:26:55;56370.94;;;-142.21;97.23
5053;BME280;2545;50.892;5.740;2023-01-06T07:29:20;56374.84;;;-142.21;97.57
5053;BME280;2545;50.892;5.740;2023-01-06T07:31:46;56363.09;;;-142.21;97.98
5053;BME280;2545;50.892;5.740;2023-01-06T07:34:11;56376.81;;;-142.21;98.03
5053;BME280;2545;50.892;5.740;2023-01-06T07:36:37;56398.38;;;-142.21;98.23
5053;BME280;2545;50.892;5.740;2023-01-06T07:39:02;56363.09;;;-142.21;98.29
5053;BME280;2545;50.892;5.740;2023-01-06T07:41:27;56363.09;;;-142.21;98.46
5053;BME280;2545;50.892;5.740;2023-01-06T07:43:54;56372.91;;;-142.21;98.91
5053;BME280;2545;50.892;5.740;2023-01-06T07:46:20;56398.38;;;-142.21;98.24
5053;BME280;2545;50.892;5.740;2023-01-06T07:48:45;56402.31;;;-142.21;98.65
5053;BME280;2545;50.892;5.740;2023-01-06T07:51:10;56414.06;;;-142.21;98.96
5053;BME280;2545;50.892;5.740;2023-01-06T07:53:36;56388.59;;;-142.21;99.39
5053;BME280;2545;50.892;5.740;2023-01-06T07:56:01;56394.47;;;-142.21;99.40
5053;BME280;2545;50.892;5.740;2023-01-06T07:58:26;56367.00;;;-142.21;99.33
5053;BME280;2545;50.892;5.740;2023-01-06T08:00:52;56378.78;;;-142.21;99.23
5053;BME280;2545;50.892;5.740;2023-01-06T08:03:17;56368.97;;;-142.21;99.24
5053;BME280;2545;50.892;5.740;2023-01-06T08:05:43;56359.16;;;-142.21;99.87
5053;BME280;2545;50.892;5.740;2023-01-06T08:08:09;56376.81;;;-142.21;100.00
5053;BME280;2545;50.892;5.740;2023-01-06T08:10:38;56390.53;;;-142.21;100.00
5053;BME280;2545;50.892;5.740;2023-01-06T08:13:03;56368.97;;;-142.21;100.00
5053;BME280;2545;50.892;5.740;2023-01-06T08:15:29;56347.41;;;-142.21;100.00
5053;BME280;2545;50.892;5.740;2023-01-06T08:17:54;56380.75;;;-142.21;100.00
5053;BME280;2545;50.892;5.740;2023-01-06T08:20:20;56368.97;;;-142.21;100.00
5053;BME280;2545;50.892;5.740;2023-01-06T08:22:46;56394.47;;;-142.21;100.00
5053;BME280;2545;50.892;5.740;2023-01-06T08:25:11;56372.91;;;-142.21;100.00
5053;BME280;2545;50.892;5.740;2023-01-06T08:27:37;56367.00;;;-142.21;100.00
5053;BME280;2545;50.892;5.740;2023-01-06T08:30:02;56345.44;;;-142.21;100.00
5053;BME280;2545;50.892;5.740;2023-01-06T08:32:28;56380.75;;;-142.21;100.00
5053;BME280;2545;50.892;5.740;2023-01-06T08:34:53;56396.44;;;-142.21;100.00
5053;BME280;2545;50.892;5.740;2023-01-06T08:37:18;56335.63;;;-142.21;100.00
5053;BME280;2545;50.892;5.740;2023-01-06T08:39:44;56372.91;;;-142.21;100.00
5053;BME280;2545;50.892;5.740;2023-01-06T08:42:09;56392.50;;;-142.21;100.00
5053;BME280;2545;50.892;5.740;2023-01-06T08:44:34;56374.84;;;-142.21;100.00
5053;BME280;2545;50.892;5.740;2023-01-06T08:47:00;56427.81;;;-142.21;100.00
5053;BME280;2545;50.892;5.740;2023-01-06T08:49:25;56368.97;;;-142.21;100.00
5053;BME280;2545;50.892;5.740;2023-01-06T08:51:50;56370.94;;;-142.21;100.00
5053;BME280;2545;50.892;5.740;2023-01-06T08:54:16;56374.84;;;-142.21;100.00
5053;BME280;2545;50.892;5.740;2023-01-06T08:56:41;56388.59;;;-142.21;100.00
5053;BME280;2545;50.892;5.740;2023-01-06T08:59:11;56406.22;;;-142.21;100.00
5053;BME280;2545;50.892;5.740;2023-01-06T09:01:37;56398.38;;;-142.21;100.00
5053;BME280;2545;50.892;5.740;2023-01-06T09:04:04;56390.53;;;-142.21;100.00
5053;BME280;2545;50.892;5.740;2023-01-06T09:06:30;56402.31;;;-142.21;100.00
5053;BME280;2545;50.892;5.740;2023-01-06T09:08:56;56406.22;;;-142.21;100.00
5053;BME280;2545;50.892;5.740;2023-01-06T09:11:22;56370.94;;;-142.21;100.00
5053;BME280;2545;50.892;5.740;2023-01-06T09:13:49;56370.94;;;-142.21;100.00
5053;BME280;2545;50.892;5.740;2023-01-06T09:16:15;56378.78;;;-142.21;100.00
5053;BME280;2545;50.892;5.740;2023-01-06T09:18:40;56396.44;;;-142.21;100.00
5053;BME280;2545;50.892;5.740;2023-01-06T09:21:12;56365.06;;;-142.21;100.00
5053;BME280;2545;50.892;5.740;2023-01-06T09:23:38;56396.44;;;-142.21;100.00
5053;BME280;2545;50.892;5.740;2023-01-06T09:26:03;56408.19;;;-142.21;100.00
5053;BME280;2545;50.892;5.740;2023-01-06T09:28:30;56388.59;;;-142.21;100.00
5053;BME280;2545;50.892;5.740;2023-01-06T09:30:55;56388.59;;;-142.21;100.00
5053;BME280;2545;50.892;5.740;2023-01-06T09:33:21;56408.19;;;-142.21;100.00
5053;BME280;2545;50.892;5.740;2023-01-06T09:35:46;56359.16;;;-142.21;100.00
5053;BME280;2545;50.892;5.740;2023-01-06T09:38:12;56374.84;;;-142.21;100.00
5053;BME280;2545;50.892;5.740;2023-01-06T09:45:54;56398.38;;;-142.21;100.00
5053;BME280;2545;50.892;5.740;2023-01-06T09:48:24;56402.31;;;-142.21;100.00
5053;BME280;2545;50.892;5.740;2023-01-06T09:50:55;56414.06;;;-142.21;100.00
5053;BME280;2545;50.892;5.740;2023-01-06T09:53:37;56398.38;;;-142.21;100.00
5053;BME280;2545;50.892;5.740;2023-01-06T09:56:07;56414.06;;;-142.21;100.00
5053;BME280;2545;50.892;5.740;2023-01-06T09:58:54;56390.53;;;-142.21;100.00
5053;BME280;2545;50.892;5.740;2023-01-06T10:01:28;56400.34;;;-142.21;100.00
5053;BME280;2545;50.892;5.740;2023-01-06T10:03:55;56414.06;;;-142.21;100.00
5053;BME280;2545;50.892;5.740;2023-01-06T10:06:43;56427.81;;;-142.21;100.00
5053;BME280;2545;50.892;5.740;2023-01-06T10:09:43;56372.91;;;-142.21;100.00
5053;BME280;2545;50.892;5.740;2023-01-06T10:12:28;56378.78;;;-142.21;100.00
5053;BME280;2545;50.892;5.740;2023-01-06T10:20:24;56382.69;;;-142.21;100.00
5053;BME280;2545;50.892;5.740;2023-01-06T10:25:45;56363.09;;;-142.21;100.00
5053;BME280;2545;50.892;5.740;2023-01-06T10:28:34;56400.34;;;-142.21;100.00
5053;BME280;2545;50.892;5.740;2023-01-06T10:31:03;56396.44;;;-142.21;100.00
5053;BME280;2545;50.892;5.740;2023-01-06T10:33:33;56390.53;;;-142.21;100.00
5053;BME280;2545;50.892;5.740;2023-01-06T10:36:01;56367.00;;;-142.21;100.00
5053;BME280;2545;50.892;5.740;2023-01-06T10:38:36;56386.63;;;-142.21;100.00
5053;BME280;2545;50.892;5.740;2023-01-06T10:43:45;56396.44;;;-142.21;100.00
5053;BME280;2545;50.892;5.740;2023-01-06T10:46:10;56351.31;;;-142.21;100.00
5053;BME280;2545;50.892;5.740;2023-01-06T10:48:37;56376.81;;;-142.21;100.00
5053;BME280;2545;50.892;5.740;2023-01-06T10:53:54;56433.69;;;-142.21;100.00
5053;BME280;2545;50.892;5.740;2023-01-06T10:56:21;56410.16;;;-142.21;100.00
5053;BME280;2545;50.892;5.740;2023-01-06T10:58:56;56406.22;;;-142.21;100.00
5053;BME280;2545;50.892;5.740;2023-01-06T11:01:25;56400.34;;;-142.21;100.00
5053;BME280;2545;50.892;5.740;2023-01-06T11:04:11;56384.66;;;-142.21;100.00
5053;BME280;2545;50.892;5.740;2023-01-06T11:06:45;56410.16;;;-142.21;100.00
5053;BME280;2545;50.892;5.740;2023-01-06T11:09:39;56384.66;;;-142.21;100.00
5053;BME280;2545;50.892;5.740;2023-01-06T11:12:16;56414.06;;;-142.21;100.00
5053;BME280;2545;50.892;5.740;2023-01-06T11:14:49;56380.75;;;-142.21;100.00
5053;BME280;2545;50.892;5.740;2023-01-06T11:17:20;56386.63;;;-142.21;100.00
5053;BME280;2545;50.892;5.740;2023-01-06T11:20:10;56378.78;;;-142.21;100.00
5053;BME280;2545;50.892;5.740;2023-01-06T11:22:50;56400.34;;;-142.21;100.00
5053;BME280;2545;50.892;5.740;2023-01-06T11:28:29;56433.69;;;-142.21;100.00
5053;BME280;2545;50.892;5.740;2023-01-06T11:30:29;56394.47;;;-142.21;100.00
5053;BME280;2545;50.892;5.740;2023-01-06T11:32:55;56406.22;;;-142.21;100.00
5053;BME280;2545;50.892;5.740;2023-01-06T11:35:23;56363.09;;;-142.21;100.00
5053;BME280;2545;50.892;5.740;2023-01-06T11:37:56;56382.69;;;-142.21;100.00
5053;BME280;2545;50.892;5.740;2023-01-06T11:40:28;56337.59;;;-142.21;100.00
5053;BME280;2545;50.892;5.740;2023-01-06T11:43:00;56390.53;;;-142.21;100.00
5053;BME280;2545;50.892;5.740;2023-01-06T11:45:43;56425.84;;;-142.21;100.00
5053;BME280;2545;50.892;5.740;2023-01-06T11:48:19;56368.97;;;-142.21;100.00
5053;BME280;2545;50.892;5.740;2023-01-06T11:50:58;56374.84;;;-142.21;100.00
5053;BME280;2545;50.892;5.740;2023-01-06T11:53:25;56423.88;;;-142.21;100.00
5053;BME280;2545;50.892;5.740;2023-01-06T11:58:50;56410.16;;;-142.21;100.00
5053;BME280;2545;50.892;5.740;2023-01-06T12:01:47;56416.03;;;-142.21;100.00
5053;BME280;2545;50.892;5.740;2023-01-06T12:04:38;56376.81;;;-142.21;100.00
5053;BME280;2545;50.892;5.740;2023-01-06T12:07:14;56392.50;;;-142.21;100.00
5053;BME280;2545;50.892;5.740;2023-01-06T12:09:43;56390.53;;;-142.21;100.00
5053;BME280;2545;50.892;5.740;2023-01-06T12:12:13;56345.44;;;-142.21;100.00
5053;BME280;2545;50.892;5.740;2023-01-06T12:14:39;56410.16;;;-142.21;100.00
5053;BME280;2545;50.892;5.740;2023-01-06T12:24:43;56414.06;;;-142.21;100.00
5053;BME280;2545;50.892;5.740;2023-01-06T12:27:14;56384.66;;;-142.21;100.00
5053;BME280;2545;50.892;5.740;2023-01-06T12:29:44;56382.69;;;-142.21;100.00
5053;BME280;2545;50.892;5.740;2023-01-06T12:32:17;56404.28;;;-142.21;100.00
5053;BME280;2545;50.892;5.740;2023-01-06T12:34:46;56372.91;;;-142.21;100.00
5053;BME280;2545;50.892;5.740;2023-01-06T12:37:31;56368.97;;;-142.21;100.00
5053;BME280;2545;50.892;5.740;2023-01-06T12:40:11;56418.00;;;-142.21;100.00
5053;BME280;2545;50.892;5.740;2023-01-06T12:42:50;56418.00;;;-142.21;100.00
5053;BME280;2545;50.892;5.740;2023-01-06T12:48:20;56392.50;;;-142.21;100.00
5053;BME280;2545;50.892;5.740;2023-01-06T12:50:50;56390.53;;;-142.21;100.00
5053;BME280;2545;50.892;5.740;2023-01-06T12:53:18;56443.50;;;-142.21;100.00
5053;BME280;2545;50.892;5.740;2023-01-06T12:58:49;56404.28;;;-142.21;100.00
5053;BME280;2545;50.892;5.740;2023-01-06T13:01:44;56416.03;;;-142.21;100.00
5053;BME280;2545;50.892;5.740;2023-01-06T13:09:40;56370.94;;;-142.21;100.00
5053;BME280;2545;50.892;5.740;2023-01-06T13:15:03;56396.44;;;-142.21;100.00
5053;BME280;2545;50.892;5.740;2023-01-06T13:17:53;56429.75;;;-142.21;100.00
5053;BME280;2545;50.892;5.740;2023-01-06T13:20:42;56374.84;;;-142.21;100.00
5053;BME280;2545;50.892;5.740;2023-01-06T13:23:39;56398.38;;;-142.21;100.00
5053;BME280;2545;50.892;5.740;2023-01-06T13:37:40;56406.22;;;-142.21;100.00
5053;BME280;2545;50.892;5.740;2023-01-06T13:40:18;56406.22;;;-142.21;100.00
5053;BME280;2545;50.892;5.740;2023-01-06T13:42:54;56390.53;;;-142.21;100.00
5053;BME280;2545;50.892;5.740;2023-01-06T13:45:31;56398.38;;;-142.21;100.00
5053;BME280;2545;50.892;5.740;2023-01-06T13:47:58;56402.31;;;-142.21;100.00
5053;BME280;2545;50.892;5.740;2023-01-06T13:50:31;56368.97;;;-142.21;100.00
5053;BME280;2545;50.892;5.740;2023-01-06T13:52:57;56423.88;;;-142.21;100.00
5053;BME280;2545;50.892;5.740;2023-01-06T13:55:31;56386.63;;;-142.21;100.00
5053;BME280;2545;50.892;5.740;2023-01-06T14:03:42;56414.06;;;-142.21;100.00
5053;BME280;2545;50.892;5.740;2023-01-06T14:08:53;56423.88;;;-142.21;100.00
5053;BME280;2545;50.892;5.740;2023-01-06T14:11:30;56376.81;;;-142.21;100.00
5053;BME280;2545;50.892;5.740;2023-01-06T14:14:05;56382.69;;;-142.21;100.00
5053;BME280;2545;50.892;5.740;2023-01-06T14:16:47;56394.47;;;-142.21;100.00
5053;BME280;2545;50.892;5.740;2023-01-06T14:19:21;56414.06;;;-142.21;100.00
5053;BME280;2545;50.892;5.740;2023-01-06T14:21:49;56421.91;;;-142.21;100.00
5053;BME280;2545;50.892;5.740;2023-01-06T14:24:36;56394.47;;;-142.21;100.00
5053;BME280;2545;50.892;5.740;2023-01-06T14:27:05;56359.16;;;-142.21;100.00
5053;BME280;2545;50.892;5.740;2023-01-06T14:32:04;56378.78;;;-142.21;100.00
5053;BME280;2545;50.892;5.740;2023-01-06T14:34:30;56384.66;;;-142.21;100.00
5053;BME280;2545;50.892;5.740;2023-01-06T14:36:57;56367.00;;;-142.21;100.00
5053;BME280;2545;50.892;5.740;2023-01-06T14:39:25;56374.84;;;-142.21;100.00
5053;BME280;2545;50.892;5.740;2023-01-06T14:42:04;56429.75;;;-142.21;100.00
5053;BME280;2545;50.892;5.740;2023-01-06T14:44:45;56390.53;;;-142.21;100.00
5053;BME280;2545;50.892;5.740;2023-01-06T14:47:17;56386.63;;;-142.21;100.00
5053;BME280;2545;50.892;5.740;2023-01-06T14:49:51;56394.47;;;-142.21;100.00
5053;BME280;2545;50.892;5.740;2023-01-06T14:52:28;56370.94;;;-142.21;100.00
5053;BME280;2545;50.892;5.740;2023-01-06T14:54:55;56390.53;;;-142.21;100.00
5053;BME280;2545;50.892;5.740;2023-01-06T14:57:37;56353.28;;;-142.21;100.00
5053;BME280;2545;50.892;5.740;2023-01-06T15:02:48;56361.13;;;-142.21;100.00